sensor_id;sensor_type;location;lat;lon;timestamp;P1;durP1;ratioP1;P2;durP2;ratioP2
2674;SDS011;1347;42.122;24.746;2023-04-26T00:00:29;3.23;;;2.93;;
2674;SDS011;1347;42.122;24.746;2023-04-26T00:02:57;3.07;;;2.87;;
2674;SDS011;1347;42.122;24.746;2023-04-26T00:05:26;3.50;;;3.20;;
2674;SDS011;1347;42.122;24.746;2023-04-26T00:07:53;4.90;;;3.10;;
2674;SDS011;1347;42.122;24.746;2023-04-26T00:10:20;4.10;;;3.70;;
2674;SDS011;1347;42.122;24.746;2023-04-26T00:12:47;3.90;;;3.50;;
2674;SDS011;1347;42.122;24.746;2023-04-26T00:15:14;3.90;;;3.50;;
2674;SDS011;1347;42.122;24.746;2023-04-26T00:17:41;6.87;;;4.00;;
2674;SDS011;1347;42.122;24.746;2023-04-26T00:20:08;3.87;;;3.20;;
2674;SDS011;1347;42.122;24.746;2023-04-26T00:22:39;3.23;;;2.50;;
2674;SDS011;1347;42.122;24.746;2023-04-26T00:25:06;3.23;;;2.93;;
2674;SDS011;1347;42.122;24.746;2023-04-26T00:27:33;3.20;;;2.90;;
2674;SDS011;1347;42.122;24.746;2023-04-26T00:30:00;2.50;;;2.30;;
2674;SDS011;1347;42.122;24.746;2023-04-26T00:32:27;2.63;;;2.43;;
2674;SDS011;1347;42.122;24.746;2023-04-26T00:34:56;2.93;;;2.67;;
2674;SDS011;1347;42.122;24.746;2023-04-26T00:37:22;2.43;;;2.10;;
2674;SDS011;1347;42.122;24.746;2023-04-26T00:39:51;2.57;;;2.13;;
2674;SDS011;1347;42.122;24.746;2023-04-26T00:42:18;3.43;;;2.60;;
2674;SDS011;1347;42.122;24.746;2023-04-26T00:44:45;4.00;;;2.43;;
2674;SDS011;1347;42.122;24.746;2023-04-26T00:47:12;3.77;;;2.40;;
2674;SDS011;1347;42.122;24.746;2023-04-26T00:49:39;2.47;;;2.27;;
2674;SDS011;1347;42.122;24.746;2023-04-26T00:52:06;2.77;;;2.30;;
2674;SDS011;1347;42.122;24.746;2023-04-26T00:54:33;2.80;;;2.33;;
2674;SDS011;1347;42.122;24.746;2023-04-26T00:57:01;3.47;;;2.93;;
2674;SDS011;1347;42.122;24.746;2023-04-26T00:59:28;2.07;;;1.90;;
2674;SDS011;1347;42.122;24.746;2023-04-26T01:01:55;2.67;;;2.30;;
2674;SDS011;1347;42.122;24.746;2023-04-26T01:04:22;3.47;;;2.00;;
2674;SDS011;1347;42.122;24.746;2023-04-26T01:06:51;1.90;;;1.80;;
2674;SDS011;1347;42.122;24.746;2023-04-26T01:09:18;2.33;;;1.90;;
2674;SDS011;1347;42.122;24.746;2023-04-26T01:11:45;2.00;;;1.80;;
2674;SDS011;1347;42.122;24.746;2023-04-26T01:14:14;2.83;;;1.60;;
2674;SDS011;1347;42.122;24.746;2023-04-26T01:16:41;2.80;;;1.90;;
2674;SDS011;1347;42.122;24.746;2023-04-26T01:19:10;2.10;;;1.80;;
2674;SDS011;1347;42.122;24.746;2023-04-26T01:21:38;1.67;;;1.47;;
2674;SDS011;1347;42.122;24.746;2023-04-26T01:24:07;2.27;;;1.60;;
2674;SDS011;1347;42.122;24.746;2023-04-26T01:26:35;2.10;;;1.90;;
2674;SDS011;1347;42.122;24.746;2023-04-26T01:29:12;4.70;;;1.63;;
2674;SDS011;1347;42.122;24.746;2023-04-26T01:31:39;1.67;;;1.57;;
2674;SDS011;1347;42.122;24.746;2023-04-26T01:34:06;2.13;;;1.90;;
2674;SDS011;1347;42.122;24.746;2023-04-26T01:36:33;2.77;;;1.63;;
2674;SDS011;1347;42.122;24.746;2023-04-26T01:39:00;3.40;;;2.03;;
2674;SDS011;1347;42.122;24.746;2023-04-26T01:41:28;1.60;;;1.50;;
2674;SDS011;1347;42.122;24.746;2023-04-26T01:43:55;1.67;;;1.57;;
2674;SDS011;1347;42.122;24.746;2023-04-26T01:46:22;1.63;;;1.43;;
2674;SDS011;1347;42.122;24.746;2023-04-26T01:48:49;1.77;;;1.47;;
2674;SDS011;1347;42.122;24.746;2023-04-26T01:51:16;1.70;;;1.60;;
2674;SDS011;1347;42.122;24.746;2023-04-26T01:53:43;1.30;;;1.10;;
2674;SDS011;1347;42.122;24.746;2023-04-26T01:56:09;1.70;;;1.60;;
2674;SDS011;1347;42.122;24.746;2023-04-26T01:58:38;1.60;;;1.50;;
2674;SDS011;1347;42.122;24.746;2023-04-26T02:01:05;2.60;;;2.00;;
2674;SDS011;1347;42.122;24.746;2023-04-26T02:03:33;1.70;;;1.60;;
2674;SDS011;1347;42.122;24.746;2023-04-26T02:06:00;1.90;;;1.70;;
2674;SDS011;1347;42.122;24.746;2023-04-26T02:08:28;2.20;;;1.70;;
2674;SDS011;1347;42.122;24.746;2023-04-26T02:10:55;2.10;;;1.73;;
2674;SDS011;1347;42.122;24.746;2023-04-26T02:13:22;1.93;;;1.80;;
2674;SDS011;1347;42.122;24.746;2023-04-26T02:15:50;4.47;;;1.60;;
2674;SDS011;1347;42.122;24.746;2023-04-26T02:18:17;3.30;;;1.63;;
2674;SDS011;1347;42.122;24.746;2023-04-26T02:20:46;4.17;;;1.83;;
2674;SDS011;1347;42.122;24.746;2023-04-26T02:23:13;2.90;;;2.33;;
2674;SDS011;1347;42.122;24.746;2023-04-26T02:25:40;2.80;;;2.30;;
2674;SDS011;1347;42.122;24.746;2023-04-26T02:28:07;2.33;;;2.03;;
2674;SDS011;1347;42.122;24.746;2023-04-26T02:30:34;2.03;;;1.83;;
2674;SDS011;1347;42.122;24.746;2023-04-26T02:33:03;3.00;;;2.23;;
2674;SDS011;1347;42.122;24.746;2023-04-26T02:35:30;2.73;;;2.53;;
2674;SDS011;1347;42.122;24.746;2023-04-26T02:37:56;3.70;;;2.63;;
2674;SDS011;1347;42.122;24.746;2023-04-26T02:40:23;2.63;;;2.40;;
2674;SDS011;1347;42.122;24.746;2023-04-26T02:42:50;2.83;;;2.60;;
2674;SDS011;1347;42.122;24.746;2023-04-26T02:45:17;3.10;;;2.60;;
2674;SDS011;1347;42.122;24.746;2023-04-26T02:47:44;4.60;;;3.20;;
2674;SDS011;1347;42.122;24.746;2023-04-26T02:50:12;2.93;;;2.73;;
2674;SDS011;1347;42.122;24.746;2023-04-26T02:52:39;2.73;;;2.20;;
2674;SDS011;1347;42.122;24.746;2023-04-26T02:55:07;4.70;;;3.37;;
2674;SDS011;1347;42.122;24.746;2023-04-26T02:57:34;6.43;;;4.00;;
2674;SDS011;1347;42.122;24.746;2023-04-26T03:00:01;7.27;;;3.23;;
2674;SDS011;1347;42.122;24.746;2023-04-26T03:02:29;3.83;;;3.40;;
2674;SDS011;1347;42.122;24.746;2023-04-26T03:04:57;4.03;;;3.73;;
2674;SDS011;1347;42.122;24.746;2023-04-26T03:07:25;3.13;;;2.83;;
2674;SDS011;1347;42.122;24.746;2023-04-26T03:09:52;3.57;;;3.27;;
2674;SDS011;1347;42.122;24.746;2023-04-26T03:12:19;6.50;;;5.27;;
2674;SDS011;1347;42.122;24.746;2023-04-26T03:14:46;4.57;;;3.90;;
2674;SDS011;1347;42.122;24.746;2023-04-26T03:17:13;5.97;;;4.00;;
2674;SDS011;1347;42.122;24.746;2023-04-26T03:19:39;4.27;;;3.87;;
2674;SDS011;1347;42.122;24.746;2023-04-26T03:22:06;4.30;;;3.90;;
2674;SDS011;1347;42.122;24.746;2023-04-26T03:24:36;4.90;;;4.27;;
2674;SDS011;1347;42.122;24.746;2023-04-26T03:27:03;6.70;;;4.57;;
2674;SDS011;1347;42.122;24.746;2023-04-26T03:29:30;5.67;;;5.00;;
2674;SDS011;1347;42.122;24.746;2023-04-26T03:31:57;4.50;;;3.83;;
2674;SDS011;1347;42.122;24.746;2023-04-26T03:34:24;5.10;;;4.70;;
2674;SDS011;1347;42.122;24.746;2023-04-26T03:36:51;4.00;;;3.57;;
2674;SDS011;1347;42.122;24.746;2023-04-26T03:39:18;4.57;;;4.17;;
2674;SDS011;1347;42.122;24.746;2023-04-26T03:41:47;4.33;;;3.90;;
2674;SDS011;1347;42.122;24.746;2023-04-26T03:44:14;5.00;;;4.07;;
2674;SDS011;1347;42.122;24.746;2023-04-26T03:46:41;5.97;;;4.20;;
2674;SDS011;1347;42.122;24.746;2023-04-26T03:49:08;4.63;;;3.30;;
2674;SDS011;1347;42.122;24.746;2023-04-26T03:51:35;3.60;;;3.30;;
2674;SDS011;1347;42.122;24.746;2023-04-26T03:54:03;4.87;;;3.80;;
2674;SDS011;1347;42.122;24.746;2023-04-26T03:56:30;3.73;;;3.33;;
2674;SDS011;1347;42.122;24.746;2023-04-26T03:58:58;3.43;;;2.97;;
2674;SDS011;1347;42.122;24.746;2023-04-26T04:01:25;6.77;;;4.03;;
2674;SDS011;1347;42.122;24.746;2023-04-26T04:03:52;4.43;;;3.53;;
2674;SDS011;1347;42.122;24.746;2023-04-26T04:06:19;3.63;;;3.17;;
2674;SDS011;1347;42.122;24.746;2023-04-26T04:08:46;5.10;;;3.70;;
2674;SDS011;1347;42.122;24.746;2023-04-26T04:11:13;3.17;;;2.87;;
2674;SDS011;1347;42.122;24.746;2023-04-26T04:13:40;4.93;;;3.07;;
2674;SDS011;1347;42.122;24.746;2023-04-26T04:16:08;3.20;;;2.90;;
2674;SDS011;1347;42.122;24.746;2023-04-26T04:18:35;3.60;;;2.73;;
2674;SDS011;1347;42.122;24.746;2023-04-26T04:21:02;3.77;;;2.70;;
2674;SDS011;1347;42.122;24.746;2023-04-26T04:23:29;3.37;;;3.10;;
2674;SDS011;1347;42.122;24.746;2023-04-26T04:25:56;4.57;;;3.60;;
2674;SDS011;1347;42.122;24.746;2023-04-26T04:28:23;4.30;;;3.90;;
2674;SDS011;1347;42.122;24.746;2023-04-26T04:30:50;3.50;;;3.20;;
2674;SDS011;1347;42.122;24.746;2023-04-26T04:33:18;4.37;;;3.97;;
2674;SDS011;1347;42.122;24.746;2023-04-26T04:35:45;4.10;;;3.70;;
2674;SDS011;1347;42.122;24.746;2023-04-26T04:38:12;4.37;;;3.97;;
2674;SDS011;1347;42.122;24.746;2023-04-26T04:40:39;11.03;;;4.00;;
2674;SDS011;1347;42.122;24.746;2023-04-26T04:43:06;6.33;;;4.60;;
2674;SDS011;1347;42.122;24.746;2023-04-26T04:45:33;4.83;;;4.43;;
2674;SDS011;1347;42.122;24.746;2023-04-26T04:48:01;5.10;;;4.60;;
2674;SDS011;1347;42.122;24.746;2023-04-26T04:50:30;5.70;;;4.60;;
2674;SDS011;1347;42.122;24.746;2023-04-26T04:52:57;6.37;;;5.30;;
2674;SDS011;1347;42.122;24.746;2023-04-26T04:55:24;4.97;;;4.40;;
2674;SDS011;1347;42.122;24.746;2023-04-26T04:57:51;12.00;;;4.17;;
2674;SDS011;1347;42.122;24.746;2023-04-26T05:00:18;6.00;;;4.27;;
2674;SDS011;1347;42.122;24.746;2023-04-26T05:02:46;5.97;;;4.20;;
2674;SDS011;1347;42.122;24.746;2023-04-26T05:05:12;8.10;;;3.67;;
2674;SDS011;1347;42.122;24.746;2023-04-26T05:07:41;4.00;;;3.30;;
2674;SDS011;1347;42.122;24.746;2023-04-26T05:10:08;7.80;;;4.13;;
2674;SDS011;1347;42.122;24.746;2023-04-26T05:12:36;5.03;;;3.57;;
2674;SDS011;1347;42.122;24.746;2023-04-26T05:15:03;14.13;;;4.07;;
2674;SDS011;1347;42.122;24.746;2023-04-26T05:17:31;4.70;;;3.10;;
2674;SDS011;1347;42.122;24.746;2023-04-26T05:19:58;7.83;;;4.17;;
2674;SDS011;1347;42.122;24.746;2023-04-26T05:22:30;5.17;;;4.13;;
2674;SDS011;1347;42.122;24.746;2023-04-26T05:25:00;9.30;;;4.17;;
2674;SDS011;1347;42.122;24.746;2023-04-26T05:27:28;6.40;;;5.10;;
2674;SDS011;1347;42.122;24.746;2023-04-26T05:29:55;7.50;;;4.47;;
2674;SDS011;1347;42.122;24.746;2023-04-26T05:32:22;5.20;;;4.50;;
2674;SDS011;1347;42.122;24.746;2023-04-26T05:34:49;5.50;;;4.60;;
2674;SDS011;1347;42.122;24.746;2023-04-26T05:37:16;6.80;;;5.00;;
2674;SDS011;1347;42.122;24.746;2023-04-26T05:39:43;7.23;;;4.97;;
2674;SDS011;1347;42.122;24.746;2023-04-26T05:42:11;4.60;;;4.13;;
2674;SDS011;1347;42.122;24.746;2023-04-26T05:44:38;8.17;;;4.30;;
2674;SDS011;1347;42.122;24.746;2023-04-26T05:47:05;6.53;;;4.03;;
2674;SDS011;1347;42.122;24.746;2023-04-26T05:49:32;5.33;;;4.10;;
2674;SDS011;1347;42.122;24.746;2023-04-26T05:51:59;4.83;;;4.30;;
2674;SDS011;1347;42.122;24.746;2023-04-26T05:54:27;7.17;;;4.30;;
2674;SDS011;1347;42.122;24.746;2023-04-26T05:56:54;5.00;;;3.13;;
2674;SDS011;1347;42.122;24.746;2023-04-26T05:59:22;3.43;;;3.10;;
2674;SDS011;1347;42.122;24.746;2023-04-26T06:01:49;4.37;;;3.97;;
2674;SDS011;1347;42.122;24.746;2023-04-26T06:04:16;8.53;;;4.30;;
2674;SDS011;1347;42.122;24.746;2023-04-26T06:06:43;4.23;;;3.90;;
2674;SDS011;1347;42.122;24.746;2023-04-26T06:09:10;6.50;;;4.20;;
2674;SDS011;1347;42.122;24.746;2023-04-26T06:11:37;8.30;;;4.33;;
2674;SDS011;1347;42.122;24.746;2023-04-26T06:14:04;5.83;;;4.00;;
2674;SDS011;1347;42.122;24.746;2023-04-26T06:16:32;4.10;;;3.70;;
2674;SDS011;1347;42.122;24.746;2023-04-26T06:18:59;5.00;;;3.83;;
2674;SDS011;1347;42.122;24.746;2023-04-26T06:21:26;5.20;;;3.90;;
2674;SDS011;1347;42.122;24.746;2023-04-26T06:23:52;4.70;;;4.07;;
2674;SDS011;1347;42.122;24.746;2023-04-26T06:26:19;6.33;;;4.70;;
2674;SDS011;1347;42.122;24.746;2023-04-26T06:28:46;7.37;;;4.77;;
2674;SDS011;1347;42.122;24.746;2023-04-26T06:31:13;4.80;;;4.40;;
2674;SDS011;1347;42.122;24.746;2023-04-26T06:33:41;9.80;;;4.47;;
2674;SDS011;1347;42.122;24.746;2023-04-26T06:36:10;12.00;;;4.77;;
2674;SDS011;1347;42.122;24.746;2023-04-26T06:38:37;6.47;;;5.03;;
2674;SDS011;1347;42.122;24.746;2023-04-26T06:41:04;4.23;;;3.83;;
2674;SDS011;1347;42.122;24.746;2023-04-26T06:43:32;6.73;;;3.87;;
2674;SDS011;1347;42.122;24.746;2023-04-26T06:45:59;6.07;;;4.60;;
2674;SDS011;1347;42.122;24.746;2023-04-26T06:48:26;4.20;;;3.63;;
2674;SDS011;1347;42.122;24.746;2023-04-26T06:50:54;4.40;;;4.00;;
2674;SDS011;1347;42.122;24.746;2023-04-26T06:53:21;4.70;;;4.17;;
2674;SDS011;1347;42.122;24.746;2023-04-26T06:55:48;9.03;;;4.60;;
2674;SDS011;1347;42.122;24.746;2023-04-26T06:58:17;5.33;;;3.80;;
2674;SDS011;1347;42.122;24.746;2023-04-26T07:00:43;6.87;;;4.70;;
2674;SDS011;1347;42.122;24.746;2023-04-26T07:03:10;5.97;;;4.90;;
2674;SDS011;1347;42.122;24.746;2023-04-26T07:05:38;5.90;;;4.43;;
2674;SDS011;1347;42.122;24.746;2023-04-26T07:08:06;7.50;;;5.13;;
2674;SDS011;1347;42.122;24.746;2023-04-26T07:10:33;6.10;;;4.33;;
2674;SDS011;1347;42.122;24.746;2023-04-26T07:13:00;4.90;;;4.40;;
2674;SDS011;1347;42.122;24.746;2023-04-26T07:15:27;5.80;;;4.60;;
2674;SDS011;1347;42.122;24.746;2023-04-26T07:17:54;5.37;;;4.87;;
2674;SDS011;1347;42.122;24.746;2023-04-26T07:20:21;5.00;;;3.90;;
2674;SDS011;1347;42.122;24.746;2023-04-26T07:22:48;4.77;;;4.37;;
2674;SDS011;1347;42.122;24.746;2023-04-26T07:25:16;5.57;;;4.30;;
2674;SDS011;1347;42.122;24.746;2023-04-26T07:27:43;4.83;;;4.43;;
2674;SDS011;1347;42.122;24.746;2023-04-26T07:30:10;8.40;;;4.90;;
2674;SDS011;1347;42.122;24.746;2023-04-26T07:32:37;5.30;;;4.90;;
2674;SDS011;1347;42.122;24.746;2023-04-26T07:35:05;5.57;;;5.17;;
2674;SDS011;1347;42.122;24.746;2023-04-26T07:37:34;4.73;;;4.33;;
2674;SDS011;1347;42.122;24.746;2023-04-26T07:40:01;4.80;;;4.40;;
2674;SDS011;1347;42.122;24.746;2023-04-26T07:42:30;4.47;;;4.07;;
2674;SDS011;1347;42.122;24.746;2023-04-26T07:44:57;5.70;;;4.33;;
2674;SDS011;1347;42.122;24.746;2023-04-26T07:47:24;6.83;;;5.03;;
2674;SDS011;1347;42.122;24.746;2023-04-26T07:49:51;4.73;;;4.27;;
2674;SDS011;1347;42.122;24.746;2023-04-26T07:52:19;6.10;;;3.80;;
2674;SDS011;1347;42.122;24.746;2023-04-26T07:54:46;4.20;;;3.90;;
2674;SDS011;1347;42.122;24.746;2023-04-26T07:57:13;4.60;;;4.20;;
2674;SDS011;1347;42.122;24.746;2023-04-26T07:59:42;4.77;;;4.37;;
2674;SDS011;1347;42.122;24.746;2023-04-26T08:02:09;4.90;;;4.10;;
2674;SDS011;1347;42.122;24.746;2023-04-26T08:04:36;4.07;;;3.77;;
2674;SDS011;1347;42.122;24.746;2023-04-26T08:07:03;4.23;;;3.83;;
2674;SDS011;1347;42.122;24.746;2023-04-26T08:09:30;4.93;;;3.50;;
2674;SDS011;1347;42.122;24.746;2023-04-26T08:11:57;4.87;;;4.47;;
2674;SDS011;1347;42.122;24.746;2023-04-26T08:14:23;3.97;;;3.67;;
2674;SDS011;1347;42.122;24.746;2023-04-26T08:16:52;5.13;;;4.83;;
2674;SDS011;1347;42.122;24.746;2023-04-26T08:19:19;5.03;;;4.60;;
2674;SDS011;1347;42.122;24.746;2023-04-26T08:21:46;4.60;;;4.20;;
2674;SDS011;1347;42.122;24.746;2023-04-26T08:24:13;5.07;;;4.57;;
2674;SDS011;1347;42.122;24.746;2023-04-26T08:26:40;6.77;;;3.93;;
2674;SDS011;1347;42.122;24.746;2023-04-26T08:29:07;4.83;;;4.37;;
2674;SDS011;1347;42.122;24.746;2023-04-26T08:31:34;4.73;;;4.33;;
2674;SDS011;1347;42.122;24.746;2023-04-26T08:34:02;8.00;;;4.50;;
2674;SDS011;1347;42.122;24.746;2023-04-26T08:36:29;5.10;;;4.70;;
2674;SDS011;1347;42.122;24.746;2023-04-26T08:38:57;5.53;;;5.03;;
2674;SDS011;1347;42.122;24.746;2023-04-26T08:41:24;4.50;;;4.20;;
2674;SDS011;1347;42.122;24.746;2023-04-26T08:43:51;4.90;;;4.50;;
2674;SDS011;1347;42.122;24.746;2023-04-26T08:46:22;7.50;;;4.67;;
2674;SDS011;1347;42.122;24.746;2023-04-26T08:48:53;5.10;;;4.70;;
2674;SDS011;1347;42.122;24.746;2023-04-26T08:51:32;5.17;;;4.87;;
2674;SDS011;1347;42.122;24.746;2023-04-26T08:54:02;5.17;;;4.77;;
2674;SDS011;1347;42.122;24.746;2023-04-26T08:56:30;5.23;;;4.70;;
2674;SDS011;1347;42.122;24.746;2023-04-26T08:58:59;6.20;;;5.70;;
2674;SDS011;1347;42.122;24.746;2023-04-26T09:01:27;5.77;;;5.27;;
2674;SDS011;1347;42.122;24.746;2023-04-26T09:03:56;4.40;;;4.00;;
2674;SDS011;1347;42.122;24.746;2023-04-26T09:06:25;4.77;;;4.30;;
2674;SDS011;1347;42.122;24.746;2023-04-26T09:08:54;4.83;;;4.33;;
2674;SDS011;1347;42.122;24.746;2023-04-26T09:11:22;4.70;;;4.30;;
2674;SDS011;1347;42.122;24.746;2023-04-26T09:13:49;7.90;;;4.60;;
2674;SDS011;1347;42.122;24.746;2023-04-26T09:16:16;10.20;;;4.60;;
2674;SDS011;1347;42.122;24.746;2023-04-26T09:18:48;4.50;;;4.10;;
2674;SDS011;1347;42.122;24.746;2023-04-26T09:21:16;5.30;;;4.80;;
2674;SDS011;1347;42.122;24.746;2023-04-26T09:26:33;4.57;;;4.20;;
2674;SDS011;1347;42.122;24.746;2023-04-26T09:29:16;5.57;;;4.40;;
2674;SDS011;1347;42.122;24.746;2023-04-26T09:31:45;5.87;;;4.70;;
2674;SDS011;1347;42.122;24.746;2023-04-26T09:34:13;4.73;;;4.43;;
2674;SDS011;1347;42.122;24.746;2023-04-26T09:36:47;4.67;;;4.33;;
2674;SDS011;1347;42.122;24.746;2023-04-26T09:39:29;4.93;;;4.53;;
2674;SDS011;1347;42.122;24.746;2023-04-26T09:41:59;5.87;;;4.53;;
2674;SDS011;1347;42.122;24.746;2023-04-26T09:44:28;6.90;;;5.10;;
2674;SDS011;1347;42.122;24.746;2023-04-26T09:46:58;10.40;;;3.90;;
2674;SDS011;1347;42.122;24.746;2023-04-26T09:49:26;5.10;;;4.60;;
2674;SDS011;1347;42.122;24.746;2023-04-26T09:52:00;5.03;;;4.27;;
2674;SDS011;1347;42.122;24.746;2023-04-26T09:54:43;4.70;;;4.30;;
2674;SDS011;1347;42.122;24.746;2023-04-26T09:57:11;5.13;;;4.10;;
2674;SDS011;1347;42.122;24.746;2023-04-26T09:59:40;6.13;;;5.53;;
2674;SDS011;1347;42.122;24.746;2023-04-26T10:02:09;5.07;;;4.60;;
2674;SDS011;1347;42.122;24.746;2023-04-26T10:04:40;7.40;;;5.60;;
2674;SDS011;1347;42.122;24.746;2023-04-26T10:07:10;4.87;;;4.47;;
2674;SDS011;1347;42.122;24.746;2023-04-26T10:09:38;4.63;;;4.33;;
2674;SDS011;1347;42.122;24.746;2023-04-26T10:12:07;5.10;;;4.70;;
2674;SDS011;1347;42.122;24.746;2023-04-26T10:14:35;5.03;;;4.63;;
2674;SDS011;1347;42.122;24.746;2023-04-26T10:17:02;4.93;;;4.63;;
2674;SDS011;1347;42.122;24.746;2023-04-26T10:19:30;4.53;;;4.23;;
2674;SDS011;1347;42.122;24.746;2023-04-26T10:22:01;4.80;;;4.40;;
2674;SDS011;1347;42.122;24.746;2023-04-26T10:24:31;5.17;;;4.67;;
2674;SDS011;1347;42.122;24.746;2023-04-26T10:26:59;4.93;;;4.53;;
2674;SDS011;1347;42.122;24.746;2023-04-26T10:32:29;4.70;;;4.30;;
2674;SDS011;1347;42.122;24.746;2023-04-26T10:40:35;6.10;;;5.70;;
2674;SDS011;1347;42.122;24.746;2023-04-26T10:45:58;6.30;;;5.80;;
2674;SDS011;1347;42.122;24.746;2023-04-26T10:49:16;8.60;;;5.50;;
2674;SDS011;1347;42.122;24.746;2023-04-26T10:54:49;6.07;;;5.57;;
2674;SDS011;1347;42.122;24.746;2023-04-26T10:57:17;7.13;;;6.13;;
2674;SDS011;1347;42.122;24.746;2023-04-26T11:02:45;6.50;;;6.00;;
2674;SDS011;1347;42.122;24.746;2023-04-26T11:05:35;6.23;;;5.63;;
2674;SDS011;1347;42.122;24.746;2023-04-26T11:08:23;6.10;;;5.60;;
2674;SDS011;1347;42.122;24.746;2023-04-26T11:10:56;5.67;;;5.17;;
2674;SDS011;1347;42.122;24.746;2023-04-26T11:13:24;5.53;;;5.13;;
2674;SDS011;1347;42.122;24.746;2023-04-26T11:15:51;13.90;;;6.13;;
2674;SDS011;1347;42.122;24.746;2023-04-26T11:18:19;6.20;;;5.70;;
2674;SDS011;1347;42.122;24.746;2023-04-26T11:20:47;7.90;;;7.17;;
2674;SDS011;1347;42.122;24.746;2023-04-26T11:23:14;6.47;;;5.93;;
2674;SDS011;1347;42.122;24.746;2023-04-26T11:25:44;9.80;;;6.90;;
2674;SDS011;1347;42.122;24.746;2023-04-26T11:28:11;7.20;;;6.60;;
2674;SDS011;1347;42.122;24.746;2023-04-26T11:30:37;7.20;;;6.50;;
2674;SDS011;1347;42.122;24.746;2023-04-26T11:33:04;7.50;;;6.90;;
2674;SDS011;1347;42.122;24.746;2023-04-26T11:35:32;6.33;;;5.77;;
2674;SDS011;1347;42.122;24.746;2023-04-26T11:38:02;8.60;;;6.27;;
2674;SDS011;1347;42.122;24.746;2023-04-26T11:40:31;6.53;;;5.60;;
2674;SDS011;1347;42.122;24.746;2023-04-26T11:43:00;6.17;;;5.47;;
2674;SDS011;1347;42.122;24.746;2023-04-26T11:45:30;8.00;;;5.07;;
2674;SDS011;1347;42.122;24.746;2023-04-26T11:47:57;5.80;;;5.30;;
2674;SDS011;1347;42.122;24.746;2023-04-26T11:50:26;6.00;;;4.90;;
2674;SDS011;1347;42.122;24.746;2023-04-26T11:52:54;5.43;;;4.93;;
2674;SDS011;1347;42.122;24.746;2023-04-26T11:55:24;5.97;;;4.87;;
2674;SDS011;1347;42.122;24.746;2023-04-26T11:57:53;4.50;;;4.13;;
2674;SDS011;1347;42.122;24.746;2023-04-26T12:00:21;5.53;;;5.03;;
2674;SDS011;1347;42.122;24.746;2023-04-26T12:02:49;4.80;;;4.40;;
2674;SDS011;1347;42.122;24.746;2023-04-26T12:05:21;8.23;;;5.20;;
2674;SDS011;1347;42.122;24.746;2023-04-26T12:07:51;5.40;;;4.93;;
2674;SDS011;1347;42.122;24.746;2023-04-26T12:10:22;4.30;;;3.90;;
2674;SDS011;1347;42.122;24.746;2023-04-26T12:12:52;4.50;;;4.20;;
2674;SDS011;1347;42.122;24.746;2023-04-26T12:15:23;6.60;;;4.57;;
2674;SDS011;1347;42.122;24.746;2023-04-26T12:17:54;4.70;;;4.40;;
2674;SDS011;1347;42.122;24.746;2023-04-26T12:20:28;6.83;;;4.40;;
2674;SDS011;1347;42.122;24.746;2023-04-26T12:23:01;5.40;;;4.80;;
2674;SDS011;1347;42.122;24.746;2023-04-26T12:25:31;5.03;;;4.53;;
2674;SDS011;1347;42.122;24.746;2023-04-26T12:27:59;5.30;;;4.83;;
2674;SDS011;1347;42.122;24.746;2023-04-26T12:30:27;4.93;;;4.53;;
2674;SDS011;1347;42.122;24.746;2023-04-26T12:32:54;5.07;;;4.40;;
2674;SDS011;1347;42.122;24.746;2023-04-26T12:35:22;4.23;;;3.90;;
2674;SDS011;1347;42.122;24.746;2023-04-26T12:37:50;4.33;;;3.93;;
2674;SDS011;1347;42.122;24.746;2023-04-26T12:40:18;4.50;;;4.10;;
2674;SDS011;1347;42.122;24.746;2023-04-26T12:42:48;6.97;;;5.80;;
2674;SDS011;1347;42.122;24.746;2023-04-26T12:45:16;10.23;;;5.10;;
2674;SDS011;1347;42.122;24.746;2023-04-26T12:47:43;5.17;;;4.50;;
2674;SDS011;1347;42.122;24.746;2023-04-26T12:50:11;6.17;;;4.30;;
2674;SDS011;1347;42.122;24.746;2023-04-26T12:52:38;4.67;;;4.27;;
2674;SDS011;1347;42.122;24.746;2023-04-26T12:55:06;4.00;;;3.70;;
2674;SDS011;1347;42.122;24.746;2023-04-26T12:57:34;3.90;;;3.60;;
2674;SDS011;1347;42.122;24.746;2023-04-26T13:00:04;4.80;;;4.33;;
2674;SDS011;1347;42.122;24.746;2023-04-26T13:02:32;4.60;;;4.20;;
2674;SDS011;1347;42.122;24.746;2023-04-26T13:04:59;7.30;;;4.70;;
2674;SDS011;1347;42.122;24.746;2023-04-26T13:07:28;5.20;;;4.80;;
2674;SDS011;1347;42.122;24.746;2023-04-26T13:09:55;4.97;;;4.60;;
2674;SDS011;1347;42.122;24.746;2023-04-26T13:12:23;4.90;;;4.50;;
2674;SDS011;1347;42.122;24.746;2023-04-26T13:14:50;5.60;;;5.10;;
2674;SDS011;1347;42.122;24.746;2023-04-26T13:17:18;9.30;;;4.40;;
2674;SDS011;1347;42.122;24.746;2023-04-26T13:19:46;4.57;;;4.17;;
2674;SDS011;1347;42.122;24.746;2023-04-26T13:22:13;4.43;;;4.03;;
2674;SDS011;1347;42.122;24.746;2023-04-26T13:24:41;4.47;;;4.07;;
2674;SDS011;1347;42.122;24.746;2023-04-26T13:27:08;4.40;;;4.07;;
2674;SDS011;1347;42.122;24.746;2023-04-26T13:29:35;5.20;;;4.80;;
2674;SDS011;1347;42.122;24.746;2023-04-26T13:32:02;4.83;;;4.30;;
2674;SDS011;1347;42.122;24.746;2023-04-26T13:34:30;4.90;;;4.50;;
2674;SDS011;1347;42.122;24.746;2023-04-26T13:36:57;5.57;;;4.67;;
2674;SDS011;1347;42.122;24.746;2023-04-26T13:39:24;5.80;;;4.23;;
2674;SDS011;1347;42.122;24.746;2023-04-26T13:41:53;4.53;;;4.10;;
2674;SDS011;1347;42.122;24.746;2023-04-26T13:44:20;4.30;;;4.00;;
2674;SDS011;1347;42.122;24.746;2023-04-26T13:46:47;5.53;;;4.40;;
2674;SDS011;1347;42.122;24.746;2023-04-26T13:49:14;8.20;;;4.70;;
2674;SDS011;1347;42.122;24.746;2023-04-26T13:51:42;4.07;;;3.77;;
2674;SDS011;1347;42.122;24.746;2023-04-26T13:54:09;4.63;;;4.23;;
2674;SDS011;1347;42.122;24.746;2023-04-26T13:56:36;4.40;;;3.57;;
2674;SDS011;1347;42.122;24.746;2023-04-26T13:59:03;4.60;;;4.20;;
2674;SDS011;1347;42.122;24.746;2023-04-26T14:01:32;5.10;;;4.70;;
2674;SDS011;1347;42.122;24.746;2023-04-26T14:04:00;6.43;;;5.73;;
2674;SDS011;1347;42.122;24.746;2023-04-26T14:06:26;7.00;;;6.30;;
2674;SDS011;1347;42.122;24.746;2023-04-26T14:08:55;7.53;;;6.83;;
2674;SDS011;1347;42.122;24.746;2023-04-26T14:11:22;9.27;;;8.37;;
2674;SDS011;1347;42.122;24.746;2023-04-26T14:13:49;7.20;;;6.60;;
2674;SDS011;1347;42.122;24.746;2023-04-26T14:16:20;8.90;;;8.10;;
2674;SDS011;1347;42.122;24.746;2023-04-26T14:18:47;7.50;;;6.80;;
2674;SDS011;1347;42.122;24.746;2023-04-26T14:21:14;7.27;;;5.87;;
2674;SDS011;1347;42.122;24.746;2023-04-26T14:23:41;5.53;;;5.03;;
2674;SDS011;1347;42.122;24.746;2023-04-26T14:26:10;5.70;;;5.17;;
2674;SDS011;1347;42.122;24.746;2023-04-26T14:28:37;9.00;;;6.30;;
2674;SDS011;1347;42.122;24.746;2023-04-26T14:31:05;8.13;;;7.47;;
2674;SDS011;1347;42.122;24.746;2023-04-26T14:33:32;9.20;;;6.63;;
2674;SDS011;1347;42.122;24.746;2023-04-26T14:35:59;6.90;;;6.30;;
2674;SDS011;1347;42.122;24.746;2023-04-26T14:38:26;6.70;;;5.90;;
2674;SDS011;1347;42.122;24.746;2023-04-26T14:40:53;7.30;;;6.60;;
2674;SDS011;1347;42.122;24.746;2023-04-26T14:43:21;9.97;;;6.57;;
2674;SDS011;1347;42.122;24.746;2023-04-26T14:45:48;7.83;;;6.40;;
2674;SDS011;1347;42.122;24.746;2023-04-26T14:48:15;8.67;;;6.43;;
2674;SDS011;1347;42.122;24.746;2023-04-26T14:50:43;9.00;;;6.00;;
2674;SDS011;1347;42.122;24.746;2023-04-26T14:53:09;8.50;;;5.33;;
2674;SDS011;1347;42.122;24.746;2023-04-26T14:55:36;5.70;;;4.33;;
2674;SDS011;1347;42.122;24.746;2023-04-26T14:58:03;9.10;;;5.40;;
2674;SDS011;1347;42.122;24.746;2023-04-26T15:00:32;13.63;;;5.03;;
2674;SDS011;1347;42.122;24.746;2023-04-26T15:02:59;9.90;;;5.17;;
2674;SDS011;1347;42.122;24.746;2023-04-26T15:05:25;6.00;;;4.30;;
2674;SDS011;1347;42.122;24.746;2023-04-26T15:07:52;4.73;;;3.30;;
2674;SDS011;1347;42.122;24.746;2023-04-26T15:10:21;4.70;;;4.30;;
2674;SDS011;1347;42.122;24.746;2023-04-26T15:12:47;5.77;;;4.97;;
2674;SDS011;1347;42.122;24.746;2023-04-26T15:15:15;6.70;;;6.10;;
2674;SDS011;1347;42.122;24.746;2023-04-26T15:17:43;5.00;;;4.50;;
2674;SDS011;1347;42.122;24.746;2023-04-26T15:20:10;4.07;;;3.67;;
2674;SDS011;1347;42.122;24.746;2023-04-26T15:22:37;4.30;;;3.90;;
2674;SDS011;1347;42.122;24.746;2023-04-26T15:25:05;5.40;;;4.90;;